Terminal Aerodrome Forecast
Issued by NWS Jackson, KY

Home | Current Version | Previous Version | Text Only | Print | Product List | Glossary On
Versions: 1 2 3 4 5 6 7 8 9 10 11 12 13 14 15 16 17 18
000
FTUS43 KJKL 310500
TAFJKL
TAF
KJKL 310537Z 3106/0106 VRB03KT P6SM SCT100 BKN200
     FM310900 00000KT P6SM VCSH BKN050
     FM311500 VRB03KT 6SM -SHRA BR SCT025 BKN040
     FM311900 VRB06KT 6SM -SHRA BR OVC025
     FM010000 29007KT 3SM -RA BR OVC012=

USA.gov is the U.S. government's official web portal to all federal, state and local government web resources and services.